This is the latest recevied weather packets stored in our database for station/object K8ZAS. If no packets are shown the sender has not sent any weather packets the latest 10 day(s).
| Time | Temp. | Humidity | Pressure | Rain* | Wind** | Luminosity | Snow |
|---|---|---|---|---|---|---|---|
| 1777943140 | 14.44° C | 37% | 1008.9 hPa | 0 mm | - | 60 W/m² | - |
| 1777938918 | 17.22° C | 32% | 1008 hPa | 0 mm | - | 436 W/m² | - |
| 1777937119 | 18.33° C | 31% | 1007.4 hPa | 0 mm | - | 415 W/m² | - |
| 1777934719 | 17.78° C | 31% | 1007 hPa | 0 mm | - | 751 W/m² | - |
| 1777934120 | 18.33° C | 31% | 1007.1 hPa | 0 mm | - | 339 W/m² | - |
| 1777932917 | 18.89° C | 29% | 1007.3 hPa | 0 mm | - | 704 W/m² | - |
| 1777931720 | 19.44° C | 29% | 1007.4 hPa | 0 mm | - | 762 W/m² | - |
| 1777929918 | 18.89° C | 30% | 1007.8 hPa | 0 mm | - | 848 W/m² | - |
| 1777929318 | 18.89° C | 29% | 1007.8 hPa | 0 mm | - | 862 W/m² | - |
| 1777927539 | 19.44° C | 28% | 1007.8 hPa | 0 mm | - | 1000 W/m² | - |
| 1777921517 | 18.33° C | 30% | 1008.6 hPa | 0 mm | - | 960 W/m² | - |
| 1777919121 | 17.78° C | 31% | 1009.3 hPa | 0 mm | - | 1003 W/m² | - |
| 1777918539 | 17.78° C | 31% | 1009.1 hPa | 0 mm | - | 995 W/m² | - |
| 1777911937 | 14.44° C | 37% | 1009.7 hPa | 0 mm | - | 701 W/m² | - |
| 1777910138 | 13.33° C | 38% | 1009.9 hPa | 0 mm | - | 374 W/m² | - |
| 1777908338 | 13.33° C | 40% | 1009.7 hPa | 0 mm | - | 463 W/m² | - |
| 1777906519 | 11.67° C | 45% | 1009.8 hPa | 0 mm | - | 519 W/m² | - |
| 1777905319 | 9.44° C | 49% | 1009.7 hPa | 0 mm | - | 311 W/m² | - |
| 1777904719 | 8.33° C | 54% | 1009.8 hPa | 0 mm | - | 213 W/m² | - |
| 1777902324 | 5° C | 65% | 1009.8 hPa | 0 mm | - | 84 W/m² | - |
| 1777899324 | 3.33° C | 70% | 1009 hPa | 0 mm | - | 42 W/m² | - |
| 1777896325 | 3.33° C | 71% | 1008.7 hPa | 0 mm | - | 3 W/m² | - |
| 1777895725 | 3.33° C | 71% | 1008.7 hPa | 0 mm | - | 1 W/m² | - |
| 1777891546 | 4.44° C | 68% | 1008.8 hPa | 0 mm | - | 0 W/m² | - |
| 1777890927 | 4.44° C | 65% | 1008.8 hPa | 0 mm | - | 0 W/m² | - |
* Rain latest hour (hover to see other rain measurements)
** Current wind speed in m/s (hover to see current wind gust speed)